createdAt,value
2023-04-06T14:48:13.174Z,14.40
2023-04-06T14:50:59.125Z,15.00
2023-04-06T14:53:45.574Z,15.40
2023-04-06T14:56:32.301Z,15.70
2023-04-06T14:59:17.791Z,16.00
2023-04-06T15:02:04.517Z,16.20
2023-04-06T15:04:51.071Z,16.40
2023-04-06T15:07:37.999Z,16.60
2023-04-06T15:10:23.855Z,16.70
2023-04-06T15:13:09.472Z,16.80
2023-04-06T15:15:55.001Z,16.90
2023-04-06T15:18:41.607Z,16.90
2023-04-06T15:21:28.111Z,17.00
2023-04-06T15:24:13.874Z,17.10
2023-04-06T15:26:59.919Z,17.10
2023-04-06T15:29:46.297Z,17.20
2023-04-06T15:32:31.938Z,17.20
2023-04-06T15:35:17.895Z,17.20
2023-04-06T15:38:03.910Z,17.30
2023-04-06T15:40:50.457Z,17.30
2023-04-06T15:43:36.115Z,17.30
2023-04-06T15:46:22.690Z,17.20
2023-04-06T15:49:09.552Z,17.20
2023-04-06T15:51:55.887Z,17.10
2023-04-06T15:54:41.777Z,17.10
2023-04-06T15:57:28.285Z,17.10
2023-04-06T16:00:15.612Z,17.00
2023-04-06T16:03:01.495Z,17.00
2023-04-06T16:05:59.138Z,17.00
2023-04-06T16:08:50.328Z,17.00
2023-04-06T16:11:36.917Z,17.00
2023-04-06T16:14:22.826Z,17.00
2023-04-06T16:17:08.281Z,17.00
2023-04-06T16:19:53.944Z,17.00
2023-04-06T16:22:39.360Z,16.90
2023-04-06T16:25:25.268Z,16.90
2023-04-06T16:28:11.453Z,16.90
2023-04-06T16:30:57.925Z,16.90
2023-04-06T16:33:43.698Z,16.90
2023-04-06T16:36:31.991Z,16.80
2023-04-06T16:39:17.702Z,16.80
2023-04-06T16:42:03.568Z,16.80
2023-04-06T16:44:49.519Z,16.80
2023-04-06T16:47:35.764Z,16.80
2023-04-06T16:50:21.753Z,16.80
2023-04-06T16:53:07.574Z,16.80
2023-04-06T16:55:53.333Z,16.80
2023-04-06T16:58:39.521Z,16.80
2023-04-06T17:01:28.028Z,16.80
2023-04-06T17:04:13.896Z,16.70
2023-04-06T17:06:59.873Z,16.70
2023-04-06T17:09:45.685Z,16.70
2023-04-06T17:12:32.018Z,16.70
2023-04-06T17:15:18.252Z,16.70
2023-04-06T17:18:04.543Z,16.70
2023-04-06T17:20:50.509Z,16.60
2023-04-06T17:23:37.246Z,16.60
2023-04-06T17:26:22.886Z,16.60
2023-04-06T17:29:08.374Z,16.50
2023-04-06T17:31:53.797Z,16.50
2023-04-06T17:34:39.434Z,16.40
2023-04-06T17:37:25.255Z,16.40
2023-04-06T17:40:11.448Z,16.40
2023-04-06T17:42:57.467Z,16.40
2023-04-06T17:45:43.447Z,16.30
2023-04-06T17:48:30.077Z,16.30
2023-04-06T17:51:19.019Z,16.30
2023-04-06T17:54:05.646Z,16.20
2023-04-06T17:56:53.691Z,16.10
2023-04-06T17:59:43.876Z,16.10
2023-04-06T18:02:31.852Z,16.00
2023-04-06T18:05:19.044Z,16.00
2023-04-06T18:08:05.054Z,15.90
2023-04-06T18:10:51.316Z,15.80
2023-04-06T18:13:39.349Z,15.80
2023-04-06T18:16:27.052Z,15.70
2023-04-06T18:19:13.713Z,15.60
2023-04-06T18:22:00.496Z,15.50
2023-04-06T18:24:46.624Z,15.50
2023-04-06T18:27:33.969Z,15.50
2023-04-06T18:30:20.078Z,15.40
2023-04-06T18:33:06.577Z,15.40
2023-04-06T18:35:52.436Z,15.30
2023-04-06T18:38:44.590Z,15.30
2023-04-06T18:41:30.767Z,15.20
2023-04-06T18:44:16.885Z,15.20
2023-04-06T18:47:02.824Z,15.20
2023-04-06T18:49:49.951Z,15.10
2023-04-06T18:52:36.001Z,15.10
2023-04-06T18:55:22.509Z,15.00
2023-04-06T18:58:08.012Z,15.00
2023-04-06T19:00:55.543Z,14.90
2023-04-06T19:03:42.296Z,14.90
2023-04-06T19:06:28.558Z,14.80
2023-04-06T19:09:14.394Z,14.80
2023-04-06T19:12:01.279Z,14.80
2023-04-06T19:14:52.096Z,14.70
2023-04-06T19:17:38.196Z,14.70
2023-04-06T19:20:26.968Z,14.60
2023-04-06T19:23:13.797Z,14.60
2023-04-06T19:25:59.380Z,14.60
2023-04-06T19:28:46.206Z,14.50
2023-04-06T19:31:32.319Z,14.50
2023-04-06T19:34:18.819Z,14.50
2023-04-06T19:37:06.264Z,14.50
2023-04-06T19:39:52.328Z,14.50
2023-04-06T19:42:38.836Z,14.50
2023-04-06T19:45:24.517Z,14.50
2023-04-06T19:48:11.035Z,14.50
2023-04-06T19:50:57.592Z,14.50
2023-04-06T19:53:43.488Z,14.50
2023-04-06T19:56:31.457Z,14.50
2023-04-06T19:59:18.201Z,14.50
2023-04-06T20:02:04.596Z,14.50
2023-04-06T20:04:53.435Z,14.50
2023-04-06T20:07:40.568Z,14.50
2023-04-06T20:10:28.108Z,14.50
2023-04-06T20:13:14.628Z,14.60
2023-04-06T20:16:00.571Z,14.60
2023-04-06T20:18:46.020Z,14.60
2023-04-06T20:21:32.266Z,14.60
2023-04-06T20:24:19.088Z,14.60
2023-04-06T20:27:04.812Z,14.70
2023-04-06T20:29:50.758Z,14.70
2023-04-06T20:32:36.557Z,14.70
2023-04-06T20:35:23.434Z,14.80
2023-04-06T20:38:09.197Z,14.80
2023-04-06T20:40:58.276Z,14.80
2023-04-06T20:43:43.945Z,14.80
2023-04-06T20:46:30.021Z,14.80
2023-04-06T20:49:16.852Z,14.80
2023-04-06T20:52:03.165Z,14.80
2023-04-06T20:54:50.594Z,14.80
2023-04-06T20:57:36.297Z,14.80
2023-04-06T21:00:22.433Z,14.80
2023-04-06T21:03:08.855Z,14.80
2023-04-06T21:05:57.379Z,14.80
2023-04-06T21:08:43.196Z,14.80
2023-04-06T21:11:31.013Z,14.80
2023-04-06T21:14:19.505Z,14.80
2023-04-06T21:17:06.957Z,14.80
2023-04-06T21:19:53.600Z,14.80
2023-04-06T21:22:39.527Z,14.70
2023-04-06T21:25:25.643Z,14.70
2023-04-06T21:28:11.668Z,14.60
2023-04-06T21:30:58.256Z,14.60
2023-04-06T21:33:44.607Z,14.60
2023-04-06T21:36:33.148Z,14.60
2023-04-06T21:39:18.876Z,14.60
2023-04-06T21:42:06.518Z,14.60
2023-04-06T21:44:52.220Z,14.60
2023-04-06T21:47:38.470Z,14.50
2023-04-06T21:50:24.416Z,14.50
2023-04-06T21:53:09.875Z,14.40
2023-04-06T21:55:55.765Z,14.40
2023-04-06T21:58:41.819Z,14.40
2023-04-06T22:01:28.362Z,14.40
2023-04-06T22:04:14.127Z,14.40
2023-04-06T22:07:00.353Z,14.30
2023-04-06T22:09:50.849Z,14.30
2023-04-06T22:12:37.992Z,14.30
2023-04-06T22:15:24.602Z,14.20
2023-04-06T22:18:10.354Z,14.20
2023-04-06T22:20:56.504Z,14.20
2023-04-06T22:23:42.481Z,14.20
2023-04-06T22:26:29.597Z,14.20
2023-04-06T22:29:15.458Z,14.30
2023-04-06T22:32:01.164Z,14.30
2023-04-06T22:34:47.180Z,14.30
2023-04-06T22:37:33.553Z,14.20
2023-04-06T22:40:19.646Z,14.30
2023-04-06T22:43:05.371Z,14.30
2023-04-06T22:45:50.692Z,14.30
2023-04-06T22:48:36.082Z,14.20
2023-04-06T22:51:21.660Z,14.20
2023-04-06T22:54:09.448Z,14.20
2023-04-06T22:56:55.959Z,14.20
2023-04-06T22:59:41.684Z,14.20
2023-04-06T23:02:27.753Z,14.20
2023-04-06T23:05:13.700Z,14.20
2023-04-06T23:07:59.128Z,14.20
2023-04-06T23:10:44.896Z,14.20
2023-04-06T23:13:30.793Z,14.20
2023-04-06T23:16:16.486Z,14.20
2023-04-06T23:19:02.609Z,14.10
2023-04-06T23:21:48.682Z,14.10
2023-04-06T23:24:34.953Z,14.10
2023-04-06T23:27:21.348Z,14.00
2023-04-06T23:30:08.133Z,14.00
2023-04-06T23:32:54.286Z,13.90
2023-04-06T23:35:40.459Z,13.90
2023-04-06T23:38:26.289Z,13.80
2023-04-06T23:41:18.110Z,13.70
2023-04-06T23:44:04.357Z,13.70
2023-04-06T23:46:50.336Z,13.60
2023-04-06T23:49:36.333Z,13.50
2023-04-06T23:52:22.515Z,13.40
2023-04-06T23:55:08.956Z,13.30
2023-04-06T23:57:55.545Z,13.30
